sensor_id;sensor_type;location;lat;lon;timestamp;pressure;altitude;pressure_sealevel;temperature;humidity
55347;BME280;41218;55.700;38.270;2024-03-25T00:04:48;98010.59;;;4.47;79.13
55347;BME280;41218;55.700;38.270;2024-03-25T00:09:52;97992.09;;;4.36;79.01
55347;BME280;41218;55.700;38.270;2024-03-25T00:14:55;98020.03;;;4.53;79.20
55347;BME280;41218;55.700;38.270;2024-03-25T00:19:56;97991.56;;;4.27;79.55
55347;BME280;41218;55.700;38.270;2024-03-25T00:24:59;98056.16;;;4.66;78.90
55347;BME280;41218;55.700;38.270;2024-03-25T00:30:00;98051.69;;;4.50;79.20
55347;BME280;41218;55.700;38.270;2024-03-25T00:35:00;98073.69;;;4.61;79.08
55347;BME280;41218;55.700;38.270;2024-03-25T00:40:02;98067.56;;;4.41;78.75
55347;BME280;41218;55.700;38.270;2024-03-25T00:45:04;98078.94;;;4.43;78.44
55347;BME280;41218;55.700;38.270;2024-03-25T00:50:08;98075.16;;;4.25;78.64
55347;BME280;41218;55.700;38.270;2024-03-25T00:55:09;98112.38;;;4.33;78.31
55347;BME280;41218;55.700;38.270;2024-03-25T01:00:10;98116.44;;;4.16;77.90
55347;BME280;41218;55.700;38.270;2024-03-25T01:05:14;98100.16;;;3.77;77.87
55347;BME280;41218;55.700;38.270;2024-03-25T01:10:15;98158.06;;;3.83;77.75
55347;BME280;41218;55.700;38.270;2024-03-25T01:15:16;98156.59;;;3.66;77.98
55347;BME280;41218;55.700;38.270;2024-03-25T01:20:17;98133.41;;;3.36;77.49
55347;BME280;41218;55.700;38.270;2024-03-25T01:25:20;98212.81;;;3.67;77.76
55347;BME280;41218;55.700;38.270;2024-03-25T01:30:21;98204.34;;;3.52;77.46
55347;BME280;41218;55.700;38.270;2024-03-25T01:35:22;98179.63;;;3.26;77.26
55347;BME280;41218;55.700;38.270;2024-03-25T01:40:23;98187.91;;;3.29;77.16
55347;BME280;41218;55.700;38.270;2024-03-25T01:45:29;98224.69;;;3.35;77.34
55347;BME280;41218;55.700;38.270;2024-03-25T01:50:30;98204.22;;;3.26;76.93
55347;BME280;41218;55.700;38.270;2024-03-25T01:55:34;98213.84;;;3.19;77.18
55347;BME280;41218;55.700;38.270;2024-03-25T02:00:36;98207.94;;;3.17;77.00
55347;BME280;41218;55.700;38.270;2024-03-25T02:05:40;98211.88;;;3.00;76.89
55347;BME280;41218;55.700;38.270;2024-03-25T02:10:41;98241.00;;;3.12;76.92
55347;BME280;41218;55.700;38.270;2024-03-25T02:15:42;98252.78;;;3.16;76.97
55347;BME280;41218;55.700;38.270;2024-03-25T02:20:47;98233.00;;;3.04;76.72
55347;BME280;41218;55.700;38.270;2024-03-25T02:25:52;98258.16;;;3.13;76.41
55347;BME280;41218;55.700;38.270;2024-03-25T02:30:55;98270.16;;;3.08;76.34
55347;BME280;41218;55.700;38.270;2024-03-25T02:35:56;98284.16;;;3.07;76.61
55347;BME280;41218;55.700;38.270;2024-03-25T02:40:56;98294.91;;;2.99;76.07
55347;BME280;41218;55.700;38.270;2024-03-25T02:45:57;98312.25;;;3.07;75.94
55347;BME280;41218;55.700;38.270;2024-03-25T02:50:58;98305.13;;;3.03;76.00
55347;BME280;41218;55.700;38.270;2024-03-25T02:55:58;98282.09;;;2.84;75.85
55347;BME280;41218;55.700;38.270;2024-03-25T03:00:59;98339.88;;;3.06;75.86
55347;BME280;41218;55.700;38.270;2024-03-25T03:06:00;98281.56;;;2.63;75.63
55347;BME280;41218;55.700;38.270;2024-03-25T03:11:01;98314.56;;;2.89;75.65
55347;BME280;41218;55.700;38.270;2024-03-25T03:16:01;98332.09;;;2.88;75.44
55347;BME280;41218;55.700;38.270;2024-03-25T03:21:02;98338.03;;;2.94;75.57
55347;BME280;41218;55.700;38.270;2024-03-25T03:26:03;98313.75;;;2.57;75.54
55347;BME280;41218;55.700;38.270;2024-03-25T03:31:04;98346.78;;;2.84;75.46
55347;BME280;41218;55.700;38.270;2024-03-25T03:36:05;98336.66;;;2.68;75.15
55347;BME280;41218;55.700;38.270;2024-03-25T03:41:05;98372.59;;;2.86;75.09
55347;BME280;41218;55.700;38.270;2024-03-25T03:46:07;98397.41;;;2.97;75.26
55347;BME280;41218;55.700;38.270;2024-03-25T03:51:08;98359.91;;;2.62;75.15
55347;BME280;41218;55.700;38.270;2024-03-25T03:56:11;98378.38;;;2.69;74.78
55347;BME280;41218;55.700;38.270;2024-03-25T04:01:16;98382.94;;;2.65;75.07
55347;BME280;41218;55.700;38.270;2024-03-25T04:06:17;98395.69;;;2.60;74.91
55347;BME280;41218;55.700;38.270;2024-03-25T04:11:18;98394.63;;;2.65;75.06
55347;BME280;41218;55.700;38.270;2024-03-25T04:16:18;98383.97;;;2.44;75.09
55347;BME280;41218;55.700;38.270;2024-03-25T04:21:19;98443.78;;;2.81;74.92
55347;BME280;41218;55.700;38.270;2024-03-25T04:26:20;98427.75;;;2.64;74.92
55347;BME280;41218;55.700;38.270;2024-03-25T04:31:21;98468.00;;;2.83;74.70
55347;BME280;41218;55.700;38.270;2024-03-25T04:36:24;98419.53;;;2.48;74.64
55347;BME280;41218;55.700;38.270;2024-03-25T04:41:26;98414.31;;;2.43;74.40
55347;BME280;41218;55.700;38.270;2024-03-25T04:46:27;98459.16;;;2.73;74.52
55347;BME280;41218;55.700;38.270;2024-03-25T04:51:27;98423.66;;;2.57;74.25
55347;BME280;41218;55.700;38.270;2024-03-25T04:56:28;98455.66;;;2.73;74.51
55347;BME280;41218;55.700;38.270;2024-03-25T05:01:31;98463.72;;;2.69;74.21
55347;BME280;41218;55.700;38.270;2024-03-25T05:06:33;98503.59;;;3.02;74.27
55347;BME280;41218;55.700;38.270;2024-03-25T05:11:34;98516.75;;;3.12;74.26
55347;BME280;41218;55.700;38.270;2024-03-25T05:16:35;98532.16;;;3.20;74.23
55347;BME280;41218;55.700;38.270;2024-03-25T05:21:37;98517.59;;;3.00;73.56
55347;BME280;41218;55.700;38.270;2024-03-25T05:26:37;98548.56;;;3.20;73.56
55347;BME280;41218;55.700;38.270;2024-03-25T05:31:39;98514.94;;;3.04;73.86
55347;BME280;41218;55.700;38.270;2024-03-25T05:36:40;98577.28;;;3.46;73.57
55347;BME280;41218;55.700;38.270;2024-03-25T05:41:41;98568.94;;;3.39;73.35
55347;BME280;41218;55.700;38.270;2024-03-25T05:46:41;98564.50;;;3.34;73.88
55347;BME280;41218;55.700;38.270;2024-03-25T05:51:42;98580.75;;;3.43;73.11
55347;BME280;41218;55.700;38.270;2024-03-25T05:56:43;98551.00;;;3.26;73.18
55347;BME280;41218;55.700;38.270;2024-03-25T06:01:43;98550.56;;;3.24;72.97
55347;BME280;41218;55.700;38.270;2024-03-25T06:06:44;98608.59;;;3.65;72.83
55347;BME280;41218;55.700;38.270;2024-03-25T06:11:45;98597.66;;;3.65;72.69
55347;BME280;41218;55.700;38.270;2024-03-25T06:16:45;98616.91;;;3.84;72.33
55347;BME280;41218;55.700;38.270;2024-03-25T06:21:48;98612.41;;;3.76;72.00
55347;BME280;41218;55.700;38.270;2024-03-25T06:26:50;98637.81;;;3.92;71.85
55347;BME280;41218;55.700;38.270;2024-03-25T06:31:53;98654.22;;;3.92;71.35
55347;BME280;41218;55.700;38.270;2024-03-25T06:37:12;98654.44;;;3.87;71.16
55347;BME280;41218;55.700;38.270;2024-03-25T06:42:13;98655.06;;;3.80;71.36
55347;BME280;41218;55.700;38.270;2024-03-25T06:47:13;98625.88;;;3.53;70.11
55347;BME280;41218;55.700;38.270;2024-03-25T06:52:16;98630.44;;;3.49;70.18
55347;BME280;41218;55.700;38.270;2024-03-25T06:57:17;98700.69;;;3.92;70.29
55347;BME280;41218;55.700;38.270;2024-03-25T07:02:18;98709.44;;;3.98;69.93
55347;BME280;41218;55.700;38.270;2024-03-25T07:07:19;98698.56;;;3.86;69.66
55347;BME280;41218;55.700;38.270;2024-03-25T07:12:19;98680.28;;;3.74;69.75
55347;BME280;41218;55.700;38.270;2024-03-25T07:17:20;98715.78;;;4.02;69.29
55347;BME280;41218;55.700;38.270;2024-03-25T07:22:24;98730.88;;;4.12;69.35
55347;BME280;41218;55.700;38.270;2024-03-25T07:27:27;98754.78;;;4.31;69.20
55347;BME280;41218;55.700;38.270;2024-03-25T07:32:27;98745.19;;;4.37;68.93
55347;BME280;41218;55.700;38.270;2024-03-25T07:37:28;98735.13;;;4.41;68.51
55347;BME280;41218;55.700;38.270;2024-03-25T07:42:29;98733.59;;;4.44;67.58
55347;BME280;41218;55.700;38.270;2024-03-25T07:47:29;98720.03;;;4.31;67.45
55347;BME280;41218;55.700;38.270;2024-03-25T07:52:30;98737.16;;;4.44;67.28
55347;BME280;41218;55.700;38.270;2024-03-25T07:57:30;98719.56;;;4.29;66.84
55347;BME280;41218;55.700;38.270;2024-03-25T08:02:31;98778.91;;;4.73;67.31
55347;BME280;41218;55.700;38.270;2024-03-25T08:07:32;98743.47;;;4.64;66.67
55347;BME280;41218;55.700;38.270;2024-03-25T08:12:33;98759.44;;;4.78;66.65
55347;BME280;41218;55.700;38.270;2024-03-25T08:17:34;98777.47;;;4.95;66.13
55347;BME280;41218;55.700;38.270;2024-03-25T08:22:35;98790.50;;;5.17;65.74
55347;BME280;41218;55.700;38.270;2024-03-25T08:27:35;98775.72;;;5.22;65.35
55347;BME280;41218;55.700;38.270;2024-03-25T08:32:36;98780.38;;;5.37;65.47
55347;BME280;41218;55.700;38.270;2024-03-25T08:37:37;98762.41;;;5.40;64.96
55347;BME280;41218;55.700;38.270;2024-03-25T08:42:37;98795.72;;;5.61;64.44
55347;BME280;41218;55.700;38.270;2024-03-25T08:47:40;98770.84;;;5.51;64.09
55347;BME280;41218;55.700;38.270;2024-03-25T08:52:42;98769.97;;;5.47;63.85
55347;BME280;41218;55.700;38.270;2024-03-25T08:57:43;98756.69;;;5.49;63.37
55347;BME280;41218;55.700;38.270;2024-03-25T09:02:44;98773.50;;;5.47;62.96
55347;BME280;41218;55.700;38.270;2024-03-25T09:07:45;98765.50;;;5.38;62.98
55347;BME280;41218;55.700;38.270;2024-03-25T09:12:45;98768.75;;;5.44;63.26
55347;BME280;41218;55.700;38.270;2024-03-25T09:17:46;98813.47;;;5.68;63.04
55347;BME280;41218;55.700;38.270;2024-03-25T09:22:49;98821.66;;;5.64;63.03
55347;BME280;41218;55.700;38.270;2024-03-25T09:27:50;98818.97;;;5.68;62.71
55347;BME280;41218;55.700;38.270;2024-03-25T09:32:54;98808.63;;;5.61;62.23
55347;BME280;41218;55.700;38.270;2024-03-25T09:37:56;98795.06;;;5.49;62.03
55347;BME280;41218;55.700;38.270;2024-03-25T09:42:57;98792.63;;;5.44;61.84
55347;BME280;41218;55.700;38.270;2024-03-25T09:47:58;98812.59;;;5.63;62.01
55347;BME280;41218;55.700;38.270;2024-03-25T09:52:58;98817.13;;;5.72;61.90
55347;BME280;41218;55.700;38.270;2024-03-25T09:58:03;98812.41;;;5.72;61.21
55347;BME280;41218;55.700;38.270;2024-03-25T10:03:05;98821.19;;;5.81;60.38
55347;BME280;41218;55.700;38.270;2024-03-25T10:08:06;98824.19;;;5.92;60.41
55347;BME280;41218;55.700;38.270;2024-03-25T10:13:07;98789.53;;;5.84;60.53
55347;BME280;41218;55.700;38.270;2024-03-25T10:18:12;98805.34;;;5.91;59.73
55347;BME280;41218;55.700;38.270;2024-03-25T10:23:13;98806.22;;;5.95;59.45
55347;BME280;41218;55.700;38.270;2024-03-25T10:28:14;98801.53;;;5.95;59.03
55347;BME280;41218;55.700;38.270;2024-03-25T10:33:15;98845.19;;;6.24;59.04
55347;BME280;41218;55.700;38.270;2024-03-25T10:38:16;98839.78;;;6.27;58.84
55347;BME280;41218;55.700;38.270;2024-03-25T10:43:20;98823.25;;;6.24;58.52
55347;BME280;41218;55.700;38.270;2024-03-25T10:48:27;98827.59;;;6.25;58.61
55347;BME280;41218;55.700;38.270;2024-03-25T10:53:32;98821.78;;;6.30;58.34
55347;BME280;41218;55.700;38.270;2024-03-25T10:58:35;98837.59;;;6.36;58.46
55347;BME280;41218;55.700;38.270;2024-03-25T11:03:36;98869.28;;;6.53;58.40
55347;BME280;41218;55.700;38.270;2024-03-25T11:08:38;98860.78;;;6.39;57.60
55347;BME280;41218;55.700;38.270;2024-03-25T11:13:42;98839.00;;;6.27;57.28
55347;BME280;41218;55.700;38.270;2024-03-25T11:18:50;98826.56;;;6.13;57.58
55347;BME280;41218;55.700;38.270;2024-03-25T11:23:51;98842.38;;;6.20;57.65
55347;BME280;41218;55.700;38.270;2024-03-25T11:28:53;98863.31;;;6.28;56.78
55347;BME280;41218;55.700;38.270;2024-03-25T11:33:55;98830.41;;;6.09;56.50
55347;BME280;41218;55.700;38.270;2024-03-25T11:39:00;98859.25;;;6.22;56.65
55347;BME280;41218;55.700;38.270;2024-03-25T11:44:04;98854.53;;;6.19;56.53
55347;BME280;41218;55.700;38.270;2024-03-25T11:49:07;98874.88;;;6.37;56.19
55347;BME280;41218;55.700;38.270;2024-03-25T11:54:11;98883.09;;;6.37;56.26
55347;BME280;41218;55.700;38.270;2024-03-25T11:59:12;98876.31;;;6.31;56.30
55347;BME280;41218;55.700;38.270;2024-03-25T12:04:18;98897.75;;;6.45;56.64
55347;BME280;41218;55.700;38.270;2024-03-25T12:09:19;98843.31;;;6.08;56.45
55347;BME280;41218;55.700;38.270;2024-03-25T12:14:38;98885.84;;;6.37;56.43
55347;BME280;41218;55.700;38.270;2024-03-25T12:19:38;98868.88;;;6.32;56.49
55347;BME280;41218;55.700;38.270;2024-03-25T12:24:41;98905.09;;;6.60;56.70
55347;BME280;41218;55.700;38.270;2024-03-25T12:29:42;98894.09;;;6.60;55.79
55347;BME280;41218;55.700;38.270;2024-03-25T12:34:43;98876.66;;;6.49;56.08
55347;BME280;41218;55.700;38.270;2024-03-25T12:39:47;98897.06;;;6.71;55.06
55347;BME280;41218;55.700;38.270;2024-03-25T12:44:48;98886.69;;;6.61;55.11
55347;BME280;41218;55.700;38.270;2024-03-25T12:49:49;98900.09;;;6.66;55.35
55347;BME280;41218;55.700;38.270;2024-03-25T12:54:50;98886.31;;;6.62;55.19
55347;BME280;41218;55.700;38.270;2024-03-25T12:59:53;98870.94;;;6.58;54.41
55347;BME280;41218;55.700;38.270;2024-03-25T13:04:55;98881.97;;;6.61;54.55
55347;BME280;41218;55.700;38.270;2024-03-25T13:09:55;98877.94;;;6.55;54.60
55347;BME280;41218;55.700;38.270;2024-03-25T13:14:56;98915.69;;;6.81;54.63
55347;BME280;41218;55.700;38.270;2024-03-25T13:20:00;98867.56;;;6.45;54.66
55347;BME280;41218;55.700;38.270;2024-03-25T13:25:01;98889.44;;;6.61;54.49
55347;BME280;41218;55.700;38.270;2024-03-25T13:30:05;98914.94;;;6.85;53.87
55347;BME280;41218;55.700;38.270;2024-03-25T13:35:10;98873.75;;;6.61;54.19
55347;BME280;41218;55.700;38.270;2024-03-25T13:40:11;98887.72;;;6.76;54.25
55347;BME280;41218;55.700;38.270;2024-03-25T13:45:15;98887.78;;;6.79;54.20
55347;BME280;41218;55.700;38.270;2024-03-25T13:50:16;98850.06;;;6.53;54.11
55347;BME280;41218;55.700;38.270;2024-03-25T13:55:16;98906.53;;;6.97;53.62
55347;BME280;41218;55.700;38.270;2024-03-25T14:00:17;98855.75;;;6.64;53.36
55347;BME280;41218;55.700;38.270;2024-03-25T14:05:18;98875.56;;;6.77;53.52
55347;BME280;41218;55.700;38.270;2024-03-25T14:10:19;98903.19;;;6.84;53.85
55347;BME280;41218;55.700;38.270;2024-03-25T14:15:20;98928.88;;;6.95;53.97
55347;BME280;41218;55.700;38.270;2024-03-25T14:20:20;98911.69;;;6.79;54.27
55347;BME280;41218;55.700;38.270;2024-03-25T14:25:21;98879.44;;;6.53;54.20
55347;BME280;41218;55.700;38.270;2024-03-25T14:30:24;98893.06;;;6.46;54.43
55347;BME280;41218;55.700;38.270;2024-03-25T14:35:24;98902.00;;;6.42;54.55
55347;BME280;41218;55.700;38.270;2024-03-25T14:40:25;98940.34;;;6.58;54.49
55347;BME280;41218;55.700;38.270;2024-03-25T14:45:26;98907.53;;;6.23;54.51
55347;BME280;41218;55.700;38.270;2024-03-25T14:50:27;98926.81;;;6.27;54.87
55347;BME280;41218;55.700;38.270;2024-03-25T14:55:30;98964.06;;;6.28;55.00
55347;BME280;41218;55.700;38.270;2024-03-25T15:00:30;98946.69;;;6.04;55.76
55347;BME280;41218;55.700;38.270;2024-03-25T15:05:31;98927.38;;;5.81;55.99
55347;BME280;41218;55.700;38.270;2024-03-25T15:10:37;98952.84;;;5.81;56.64
55347;BME280;41218;55.700;38.270;2024-03-25T15:15:41;98957.91;;;5.63;57.15
55347;BME280;41218;55.700;38.270;2024-03-25T15:20:43;98959.19;;;5.50;57.42
55347;BME280;41218;55.700;38.270;2024-03-25T15:25:44;98935.59;;;5.30;57.67
55347;BME280;41218;55.700;38.270;2024-03-25T15:30:46;98951.25;;;5.29;58.18
55347;BME280;41218;55.700;38.270;2024-03-25T15:35:47;98936.56;;;5.06;58.54
55347;BME280;41218;55.700;38.270;2024-03-25T15:40:48;98940.69;;;4.84;58.94
55347;BME280;41218;55.700;38.270;2024-03-25T15:45:59;98993.88;;;4.98;59.19
55347;BME280;41218;55.700;38.270;2024-03-25T15:51:00;98952.44;;;4.56;59.76
55347;BME280;41218;55.700;38.270;2024-03-25T15:56:01;98969.13;;;4.51;60.07
55347;BME280;41218;55.700;38.270;2024-03-25T16:01:02;98997.75;;;4.53;60.30
55347;BME280;41218;55.700;38.270;2024-03-25T16:06:03;98998.22;;;4.43;60.31
55347;BME280;41218;55.700;38.270;2024-03-25T16:11:04;99037.00;;;4.45;60.65
55347;BME280;41218;55.700;38.270;2024-03-25T16:16:05;99016.75;;;4.21;61.15
55347;BME280;41218;55.700;38.270;2024-03-25T16:21:16;98988.88;;;3.91;61.53
55347;BME280;41218;55.700;38.270;2024-03-25T16:26:18;98994.81;;;3.93;61.31
55347;BME280;41218;55.700;38.270;2024-03-25T16:31:19;99030.81;;;3.95;61.70
55347;BME280;41218;55.700;38.270;2024-03-25T16:36:20;99036.06;;;3.88;61.49
55347;BME280;41218;55.700;38.270;2024-03-25T16:41:21;99047.22;;;3.83;62.03
55347;BME280;41218;55.700;38.270;2024-03-25T16:46:22;99049.41;;;3.77;62.34
55347;BME280;41218;55.700;38.270;2024-03-25T16:51:23;99040.75;;;3.63;62.62
55347;BME280;41218;55.700;38.270;2024-03-25T16:56:25;99053.72;;;3.66;62.88
55347;BME280;41218;55.700;38.270;2024-03-25T17:01:27;99026.50;;;3.45;62.40
55347;BME280;41218;55.700;38.270;2024-03-25T17:06:28;99019.41;;;3.32;62.73
55347;BME280;41218;55.700;38.270;2024-03-25T17:11:28;99033.50;;;3.34;63.23
55347;BME280;41218;55.700;38.270;2024-03-25T17:16:32;99022.91;;;3.20;63.47
55347;BME280;41218;55.700;38.270;2024-03-25T17:21:34;99061.63;;;3.34;63.29
55347;BME280;41218;55.700;38.270;2024-03-25T17:26:35;99042.25;;;3.15;63.79
55347;BME280;41218;55.700;38.270;2024-03-25T17:31:36;99055.91;;;3.15;63.58
55347;BME280;41218;55.700;38.270;2024-03-25T17:36:37;99068.41;;;3.16;63.82
55347;BME280;41218;55.700;38.270;2024-03-25T17:41:37;99057.00;;;3.01;64.17
55347;BME280;41218;55.700;38.270;2024-03-25T17:46:38;99045.56;;;2.87;63.57
55347;BME280;41218;55.700;38.270;2024-03-25T17:51:40;99063.19;;;2.90;64.15
55347;BME280;41218;55.700;38.270;2024-03-25T17:56:41;99053.25;;;2.73;64.40
55347;BME280;41218;55.700;38.270;2024-03-25T18:01:41;99067.94;;;2.80;64.38
55347;BME280;41218;55.700;38.270;2024-03-25T18:06:42;99065.78;;;2.74;64.43
55347;BME280;41218;55.700;38.270;2024-03-25T18:11:43;99067.22;;;2.71;64.56
55347;BME280;41218;55.700;38.270;2024-03-25T18:16:44;99041.44;;;2.48;64.58
55347;BME280;41218;55.700;38.270;2024-03-25T18:21:45;99081.06;;;2.66;65.02
55347;BME280;41218;55.700;38.270;2024-03-25T18:26:46;99070.09;;;2.54;65.15
55347;BME280;41218;55.700;38.270;2024-03-25T18:31:48;99084.66;;;2.58;65.00
55347;BME280;41218;55.700;38.270;2024-03-25T18:36:49;99086.78;;;2.52;64.69
55347;BME280;41218;55.700;38.270;2024-03-25T18:41:50;99096.94;;;2.43;65.06
55347;BME280;41218;55.700;38.270;2024-03-25T18:46:50;99074.81;;;2.24;64.89
55347;BME280;41218;55.700;38.270;2024-03-25T18:51:51;99083.31;;;2.22;65.53
55347;BME280;41218;55.700;38.270;2024-03-25T18:56:52;99096.28;;;2.25;65.67
55347;BME280;41218;55.700;38.270;2024-03-25T19:01:53;99098.72;;;2.18;65.52
55347;BME280;41218;55.700;38.270;2024-03-25T19:06:54;99091.72;;;2.08;65.70
55347;BME280;41218;55.700;38.270;2024-03-25T19:11:54;99090.31;;;2.02;65.70
55347;BME280;41218;55.700;38.270;2024-03-25T19:16:55;99110.34;;;2.06;65.73
55347;BME280;41218;55.700;38.270;2024-03-25T19:21:56;99104.94;;;1.97;65.80
55347;BME280;41218;55.700;38.270;2024-03-25T19:26:56;99073.00;;;1.68;65.94
55347;BME280;41218;55.700;38.270;2024-03-25T19:31:57;99111.22;;;1.89;65.83
55347;BME280;41218;55.700;38.270;2024-03-25T19:36:59;99103.44;;;1.70;65.92
55347;BME280;41218;55.700;38.270;2024-03-25T19:42:00;99117.69;;;1.76;66.21
55347;BME280;41218;55.700;38.270;2024-03-25T19:47:00;99131.97;;;1.73;65.99
55347;BME280;41218;55.700;38.270;2024-03-25T19:52:02;99123.47;;;1.66;66.25
55347;BME280;41218;55.700;38.270;2024-03-25T19:57:03;99126.53;;;1.64;66.48
55347;BME280;41218;55.700;38.270;2024-03-25T20:02:05;99118.72;;;1.54;66.43
55347;BME280;41218;55.700;38.270;2024-03-25T20:07:06;99136.19;;;1.53;66.54
55347;BME280;41218;55.700;38.270;2024-03-25T20:12:08;99136.50;;;1.51;66.63
55347;BME280;41218;55.700;38.270;2024-03-25T20:17:09;99138.13;;;1.44;66.51
55347;BME280;41218;55.700;38.270;2024-03-25T20:22:10;99143.91;;;1.42;66.39
55347;BME280;41218;55.700;38.270;2024-03-25T20:27:10;99144.72;;;1.34;66.38
55347;BME280;41218;55.700;38.270;2024-03-25T20:32:11;99167.59;;;1.42;66.63
55347;BME280;41218;55.700;38.270;2024-03-25T20:37:11;99149.53;;;1.28;66.57
55347;BME280;41218;55.700;38.270;2024-03-25T20:42:13;99168.25;;;1.30;66.57
55347;BME280;41218;55.700;38.270;2024-03-25T20:47:15;99153.56;;;1.22;66.67
55347;BME280;41218;55.700;38.270;2024-03-25T20:52:16;99177.09;;;1.27;66.64
55347;BME280;41218;55.700;38.270;2024-03-25T20:57:18;99174.19;;;1.23;66.88
55347;BME280;41218;55.700;38.270;2024-03-25T21:02:19;99165.56;;;1.12;66.80
55347;BME280;41218;55.700;38.270;2024-03-25T21:07:20;99153.56;;;1.05;66.92
55347;BME280;41218;55.700;38.270;2024-03-25T21:12:21;99163.63;;;1.13;66.57
55347;BME280;41218;55.700;38.270;2024-03-25T21:17:22;99163.00;;;1.07;66.88
55347;BME280;41218;55.700;38.270;2024-03-25T21:22:22;99176.94;;;1.06;66.77
55347;BME280;41218;55.700;38.270;2024-03-25T21:27:23;99166.19;;;1.00;66.97
55347;BME280;41218;55.700;38.270;2024-03-25T21:32:23;99159.31;;;0.94;67.12
55347;BME280;41218;55.700;38.270;2024-03-25T21:37:24;99182.22;;;1.11;67.03
55347;BME280;41218;55.700;38.270;2024-03-25T21:42:25;99184.63;;;1.12;66.80
55347;BME280;41218;55.700;38.270;2024-03-25T21:47:26;99165.41;;;1.00;66.86
55347;BME280;41218;55.700;38.270;2024-03-25T21:52:27;99176.47;;;1.04;67.17
55347;BME280;41218;55.700;38.270;2024-03-25T21:57:27;99181.91;;;1.04;67.25
55347;BME280;41218;55.700;38.270;2024-03-25T22:02:28;99187.34;;;1.04;66.86
55347;BME280;41218;55.700;38.270;2024-03-25T22:07:28;99172.44;;;1.01;67.47
55347;BME280;41218;55.700;38.270;2024-03-25T22:12:29;99154.06;;;0.89;67.00
55347;BME280;41218;55.700;38.270;2024-03-25T22:17:30;99173.56;;;1.00;67.06
55347;BME280;41218;55.700;38.270;2024-03-25T22:22:30;99174.06;;;1.02;67.21
55347;BME280;41218;55.700;38.270;2024-03-25T22:27:31;99161.72;;;0.96;66.99
55347;BME280;41218;55.700;38.270;2024-03-25T22:32:31;99151.34;;;0.89;67.10
55347;BME280;41218;55.700;38.270;2024-03-25T22:37:32;99182.84;;;0.99;67.34
55347;BME280;41218;55.700;38.270;2024-03-25T22:42:33;99178.84;;;0.88;67.43
55347;BME280;41218;55.700;38.270;2024-03-25T22:47:34;99177.72;;;0.89;67.03
55347;BME280;41218;55.700;38.270;2024-03-25T22:52:34;99160.75;;;0.83;67.54
55347;BME280;41218;55.700;38.270;2024-03-25T22:57:35;99174.03;;;0.85;67.22
55347;BME280;41218;55.700;38.270;2024-03-25T23:02:35;99159.31;;;0.77;67.13
55347;BME280;41218;55.700;38.270;2024-03-25T23:07:36;99179.97;;;0.78;67.23
55347;BME280;41218;55.700;38.270;2024-03-25T23:12:36;99184.91;;;0.76;67.43
55347;BME280;41218;55.700;38.270;2024-03-25T23:17:37;99186.97;;;0.79;67.38
55347;BME280;41218;55.700;38.270;2024-03-25T23:22:37;99192.44;;;0.79;67.17
55347;BME280;41218;55.700;38.270;2024-03-25T23:27:38;99169.38;;;0.59;67.49
55347;BME280;41218;55.700;38.270;2024-03-25T23:32:39;99198.16;;;0.69;67.59
55347;BME280;41218;55.700;38.270;2024-03-25T23:37:40;99203.31;;;0.70;67.46
55347;BME280;41218;55.700;38.270;2024-03-25T23:42:42;99207.78;;;0.75;67.39
55347;BME280;41218;55.700;38.270;2024-03-25T23:47:43;99182.97;;;0.59;67.33
55347;BME280;41218;55.700;38.270;2024-03-25T23:52:43;99190.00;;;0.60;67.25
55347;BME280;41218;55.700;38.270;2024-03-25T23:57:45;99189.34;;;0.54;67.39
